sensor_id;sensor_type;location;lat;lon;timestamp;pressure;altitude;pressure_sealevel;temperature;humidity
73564;BME280;61834;50.196;6.454;2023-03-01T00:01:05;97361.59;;;-2.41;72.34
73564;BME280;61834;50.196;6.454;2023-03-01T00:03:31;97365.81;;;-2.30;71.70
73564;BME280;61834;50.196;6.454;2023-03-01T00:05:57;97358.59;;;-2.35;71.73
73564;BME280;61834;50.196;6.454;2023-03-01T00:08:24;97358.84;;;-2.31;71.76
73564;BME280;61834;50.196;6.454;2023-03-01T00:13:36;97353.50;;;-2.36;72.95
73564;BME280;61834;50.196;6.454;2023-03-01T00:16:06;97341.50;;;-2.44;73.66
73564;BME280;61834;50.196;6.454;2023-03-01T00:18:33;97348.25;;;-2.57;74.64
73564;BME280;61834;50.196;6.454;2023-03-01T00:20:58;97350.88;;;-2.46;73.91
73564;BME280;61834;50.196;6.454;2023-03-01T00:23:24;97354.31;;;-2.36;73.31
73564;BME280;61834;50.196;6.454;2023-03-01T00:25:50;97344.50;;;-2.50;73.90
73564;BME280;61834;50.196;6.454;2023-03-01T00:28:16;97348.75;;;-2.49;73.72
73564;BME280;61834;50.196;6.454;2023-03-01T00:30:42;97347.66;;;-2.43;73.70
73564;BME280;61834;50.196;6.454;2023-03-01T00:33:09;97343.16;;;-2.53;74.72
73564;BME280;61834;50.196;6.454;2023-03-01T00:35:35;97347.72;;;-2.59;75.15
73564;BME280;61834;50.196;6.454;2023-03-01T00:38:01;97342.91;;;-2.57;74.77
73564;BME280;61834;50.196;6.454;2023-03-01T00:40:28;97335.06;;;-2.43;73.09
73564;BME280;61834;50.196;6.454;2023-03-01T00:42:53;97330.78;;;-2.44;73.02
73564;BME280;61834;50.196;6.454;2023-03-01T00:45:19;97333.47;;;-2.44;73.10
73564;BME280;61834;50.196;6.454;2023-03-01T00:47:45;97331.91;;;-2.60;74.04
73564;BME280;61834;50.196;6.454;2023-03-01T00:50:11;97324.72;;;-2.65;74.35
73564;BME280;61834;50.196;6.454;2023-03-01T00:52:37;97319.09;;;-2.68;74.56
73564;BME280;61834;50.196;6.454;2023-03-01T00:55:03;97315.63;;;-2.69;74.20
73564;BME280;61834;50.196;6.454;2023-03-01T00:57:28;97323.72;;;-2.84;74.67
73564;BME280;61834;50.196;6.454;2023-03-01T00:59:54;97331.81;;;-2.94;76.02
73564;BME280;61834;50.196;6.454;2023-03-01T01:02:20;97324.56;;;-2.93;75.66
73564;BME280;61834;50.196;6.454;2023-03-01T01:04:46;97330.00;;;-3.08;76.16
73564;BME280;61834;50.196;6.454;2023-03-01T01:07:11;97333.50;;;-3.18;77.93
73564;BME280;61834;50.196;6.454;2023-03-01T01:09:37;97325.75;;;-3.14;78.29
73564;BME280;61834;50.196;6.454;2023-03-01T01:12:03;97324.72;;;-3.33;79.21
73564;BME280;61834;50.196;6.454;2023-03-01T01:14:28;97325.81;;;-3.44;79.91
73564;BME280;61834;50.196;6.454;2023-03-01T01:16:54;97313.22;;;-3.34;78.97
73564;BME280;61834;50.196;6.454;2023-03-01T01:19:20;97313.78;;;-3.62;80.56
73564;BME280;61834;50.196;6.454;2023-03-01T01:21:47;97313.25;;;-3.49;80.35
73564;BME280;61834;50.196;6.454;2023-03-01T01:24:14;97307.13;;;-3.69;81.08
73564;BME280;61834;50.196;6.454;2023-03-01T01:26:39;97307.38;;;-3.61;80.61
73564;BME280;61834;50.196;6.454;2023-03-01T01:29:05;97298.84;;;-3.73;80.78
73564;BME280;61834;50.196;6.454;2023-03-01T01:31:33;97292.38;;;-3.52;79.44
73564;BME280;61834;50.196;6.454;2023-03-01T01:34:01;97302.03;;;-3.56;79.36
73564;BME280;61834;50.196;6.454;2023-03-01T01:36:27;97291.34;;;-3.61;79.34
73564;BME280;61834;50.196;6.454;2023-03-01T01:38:53;97290.78;;;-3.53;79.61
73564;BME280;61834;50.196;6.454;2023-03-01T01:41:20;97287.28;;;-3.53;79.76
73564;BME280;61834;50.196;6.454;2023-03-01T01:43:49;97284.34;;;-3.57;79.21
73564;BME280;61834;50.196;6.454;2023-03-01T01:46:33;97291.88;;;-3.64;79.77
73564;BME280;61834;50.196;6.454;2023-03-01T01:49:02;97286.25;;;-3.67;78.99
73564;BME280;61834;50.196;6.454;2023-03-01T01:51:37;97293.47;;;-3.58;78.79
73564;BME280;61834;50.196;6.454;2023-03-01T01:54:13;97281.16;;;-3.59;78.88
73564;BME280;61834;50.196;6.454;2023-03-01T01:56:41;97287.28;;;-3.53;78.67
73564;BME280;61834;50.196;6.454;2023-03-01T01:59:09;97283.28;;;-3.51;79.11
73564;BME280;61834;50.196;6.454;2023-03-01T02:01:36;97283.28;;;-3.56;79.78
73564;BME280;61834;50.196;6.454;2023-03-01T02:04:02;97284.28;;;-3.37;78.60
73564;BME280;61834;50.196;6.454;2023-03-01T02:06:41;97281.63;;;-3.37;79.00
73564;BME280;61834;50.196;6.454;2023-03-01T02:09:14;97284.31;;;-3.42;78.97
73564;BME280;61834;50.196;6.454;2023-03-01T02:11:41;97291.81;;;-3.39;78.79
73564;BME280;61834;50.196;6.454;2023-03-01T02:14:08;97282.44;;;-3.41;79.02
73564;BME280;61834;50.196;6.454;2023-03-01T02:16:33;97281.63;;;-3.37;77.87
73564;BME280;61834;50.196;6.454;2023-03-01T02:19:00;97277.31;;;-3.23;78.03
73564;BME280;61834;50.196;6.454;2023-03-01T02:21:32;97276.22;;;-3.27;77.44
73564;BME280;61834;50.196;6.454;2023-03-01T02:24:10;97278.63;;;-3.25;77.81
73564;BME280;61834;50.196;6.454;2023-03-01T02:26:45;97274.09;;;-3.30;78.20
73564;BME280;61834;50.196;6.454;2023-03-01T02:29:11;97263.44;;;-3.40;78.16
73564;BME280;61834;50.196;6.454;2023-03-01T02:31:37;97270.16;;;-3.42;78.47
73564;BME280;61834;50.196;6.454;2023-03-01T02:34:13;97266.94;;;-3.44;78.71
73564;BME280;61834;50.196;6.454;2023-03-01T02:36:44;97262.91;;;-3.47;79.48
73564;BME280;61834;50.196;6.454;2023-03-01T02:39:15;97259.13;;;-3.26;78.42
73564;BME280;61834;50.196;6.454;2023-03-01T02:41:46;97254.34;;;-3.39;79.29
73564;BME280;61834;50.196;6.454;2023-03-01T02:44:13;97247.38;;;-3.45;80.37
73564;BME280;61834;50.196;6.454;2023-03-01T02:46:44;97247.38;;;-3.45;79.94
73564;BME280;61834;50.196;6.454;2023-03-01T02:49:31;97246.06;;;-3.42;80.11
73564;BME280;61834;50.196;6.454;2023-03-01T02:54:55;97245.25;;;-3.48;80.15
73564;BME280;61834;50.196;6.454;2023-03-01T02:57:23;97239.34;;;-3.45;81.08
73564;BME280;61834;50.196;6.454;2023-03-01T02:59:51;97234.59;;;-3.63;81.15
73564;BME280;61834;50.196;6.454;2023-03-01T03:02:23;97238.59;;;-3.60;80.80
73564;BME280;61834;50.196;6.454;2023-03-01T03:05:18;97238.09;;;-3.62;81.46
73564;BME280;61834;50.196;6.454;2023-03-01T03:07:46;97235.94;;;-3.65;81.82
73564;BME280;61834;50.196;6.454;2023-03-01T03:10:18;97232.44;;;-3.56;81.10
73564;BME280;61834;50.196;6.454;2023-03-01T03:12:49;97235.16;;;-3.61;81.26
73564;BME280;61834;50.196;6.454;2023-03-01T03:15:15;97220.69;;;-3.60;81.01
73564;BME280;61834;50.196;6.454;2023-03-01T03:17:41;97223.06;;;-3.58;81.14
73564;BME280;61834;50.196;6.454;2023-03-01T03:20:09;97212.13;;;-3.67;80.57
73564;BME280;61834;50.196;6.454;2023-03-01T03:22:40;97212.13;;;-3.67;80.31
73564;BME280;61834;50.196;6.454;2023-03-01T03:25:06;97203.84;;;-3.70;80.34
73564;BME280;61834;50.196;6.454;2023-03-01T03:27:36;97206.25;;;-3.64;80.40
73564;BME280;61834;50.196;6.454;2023-03-01T03:30:03;97210.28;;;-3.71;81.04
73564;BME280;61834;50.196;6.454;2023-03-01T03:32:30;97206.00;;;-3.72;81.28
73564;BME280;61834;50.196;6.454;2023-03-01T03:34:55;97201.47;;;-3.82;82.67
73564;BME280;61834;50.196;6.454;2023-03-01T03:37:21;97195.63;;;-3.89;82.50
73564;BME280;61834;50.196;6.454;2023-03-01T03:40:05;97190.00;;;-3.88;81.80
73564;BME280;61834;50.196;6.454;2023-03-01T03:42:40;97189.19;;;-3.83;82.54
73564;BME280;61834;50.196;6.454;2023-03-01T03:45:06;97185.94;;;-3.75;81.04
73564;BME280;61834;50.196;6.454;2023-03-01T03:47:31;97184.34;;;-3.71;81.40
73564;BME280;61834;50.196;6.454;2023-03-01T03:49:57;97187.56;;;-3.74;81.24
73564;BME280;61834;50.196;6.454;2023-03-01T03:52:22;97186.22;;;-3.76;81.12
73564;BME280;61834;50.196;6.454;2023-03-01T03:54:48;97191.31;;;-3.80;81.08
73564;BME280;61834;50.196;6.454;2023-03-01T03:57:13;97183.31;;;-3.85;81.21
73564;BME280;61834;50.196;6.454;2023-03-01T03:59:38;97187.28;;;-3.72;80.76
73564;BME280;61834;50.196;6.454;2023-03-01T04:02:04;97184.34;;;-3.76;80.39
73564;BME280;61834;50.196;6.454;2023-03-01T04:04:29;97186.47;;;-3.73;80.42
73564;BME280;61834;50.196;6.454;2023-03-01T04:06:54;97184.63;;;-3.77;80.89
73564;BME280;61834;50.196;6.454;2023-03-01T04:09:20;97173.13;;;-3.83;80.74
73564;BME280;61834;50.196;6.454;2023-03-01T04:11:45;97182.22;;;-3.74;80.51
73564;BME280;61834;50.196;6.454;2023-03-01T04:14:11;97179.53;;;-3.69;80.64
73564;BME280;61834;50.196;6.454;2023-03-01T04:16:36;97181.16;;;-3.78;81.35
73564;BME280;61834;50.196;6.454;2023-03-01T04:19:01;97175.00;;;-3.83;80.93
73564;BME280;61834;50.196;6.454;2023-03-01T04:21:27;97166.22;;;-3.89;82.18
73564;BME280;61834;50.196;6.454;2023-03-01T04:23:53;97179.88;;;-4.01;82.35
73564;BME280;61834;50.196;6.454;2023-03-01T04:26:19;97179.06;;;-4.01;82.63
73564;BME280;61834;50.196;6.454;2023-03-01T04:28:45;97160.91;;;-4.04;83.34
73564;BME280;61834;50.196;6.454;2023-03-01T04:31:13;97161.94;;;-4.00;82.63
73564;BME280;61834;50.196;6.454;2023-03-01T04:33:51;97157.69;;;-4.01;82.55
73564;BME280;61834;50.196;6.454;2023-03-01T04:36:17;97161.41;;;-4.02;82.46
73564;BME280;61834;50.196;6.454;2023-03-01T04:38:43;97151.72;;;-3.73;81.08
73564;BME280;61834;50.196;6.454;2023-03-01T04:41:12;97155.47;;;-3.79;81.36
73564;BME280;61834;50.196;6.454;2023-03-01T04:43:38;97166.50;;;-3.91;82.07
73564;BME280;61834;50.196;6.454;2023-03-01T04:46:08;97164.59;;;-3.95;82.72
73564;BME280;61834;50.196;6.454;2023-03-01T04:48:36;97162.75;;;-3.95;81.95
73564;BME280;61834;50.196;6.454;2023-03-01T04:51:03;97167.03;;;-4.04;82.63
73564;BME280;61834;50.196;6.454;2023-03-01T04:53:29;97157.66;;;-3.96;81.89
73564;BME280;61834;50.196;6.454;2023-03-01T04:55:55;97157.66;;;-3.96;82.18
73564;BME280;61834;50.196;6.454;2023-03-01T04:58:25;97164.38;;;-4.04;83.26
73564;BME280;61834;50.196;6.454;2023-03-01T05:00:52;97158.44;;;-3.85;82.30
73564;BME280;61834;50.196;6.454;2023-03-01T05:03:17;97150.69;;;-3.87;82.37
73564;BME280;61834;50.196;6.454;2023-03-01T05:05:45;97140.25;;;-3.89;81.84
73564;BME280;61834;50.196;6.454;2023-03-01T05:08:11;97145.31;;;-3.82;81.69
73564;BME280;61834;50.196;6.454;2023-03-01T05:10:48;97150.19;;;-3.99;82.35
73564;BME280;61834;50.196;6.454;2023-03-01T05:13:14;97148.03;;;-4.02;82.46
73564;BME280;61834;50.196;6.454;2023-03-01T05:16:04;97156.06;;;-4.02;82.16
73564;BME280;61834;50.196;6.454;2023-03-01T05:18:32;97146.19;;;-4.07;82.69
73564;BME280;61834;50.196;6.454;2023-03-01T05:21:09;97144.06;;;-4.05;82.75
73564;BME280;61834;50.196;6.454;2023-03-01T05:23:35;97147.31;;;-4.18;83.31
73564;BME280;61834;50.196;6.454;2023-03-01T05:26:02;97152.38;;;-4.16;82.96
73564;BME280;61834;50.196;6.454;2023-03-01T05:28:29;97150.25;;;-4.14;83.64
73564;BME280;61834;50.196;6.454;2023-03-01T05:30:56;97141.13;;;-4.13;83.35
73564;BME280;61834;50.196;6.454;2023-03-01T05:33:22;97135.78;;;-4.08;83.91
73564;BME280;61834;50.196;6.454;2023-03-01T05:35:49;97130.16;;;-4.12;84.44
73564;BME280;61834;50.196;6.454;2023-03-01T05:38:16;97130.13;;;-4.02;83.86
73564;BME280;61834;50.196;6.454;2023-03-01T05:40:43;97119.69;;;-3.93;83.26
73564;BME280;61834;50.196;6.454;2023-03-01T05:43:09;97121.84;;;-4.00;83.87
73564;BME280;61834;50.196;6.454;2023-03-01T05:45:36;97116.44;;;-3.85;83.35
73564;BME280;61834;50.196;6.454;2023-03-01T05:48:03;97121.81;;;-3.90;84.17
73564;BME280;61834;50.196;6.454;2023-03-01T05:50:34;97123.97;;;-3.97;84.68
73564;BME280;61834;50.196;6.454;2023-03-01T05:53:07;97137.91;;;-4.05;84.44
73564;BME280;61834;50.196;6.454;2023-03-01T05:55:34;97133.63;;;-4.06;84.31
73564;BME280;61834;50.196;6.454;2023-03-01T05:58:01;97146.16;;;-3.97;84.70
73564;BME280;61834;50.196;6.454;2023-03-01T06:00:28;97143.78;;;-3.98;84.42
73564;BME280;61834;50.196;6.454;2023-03-01T06:02:55;97148.03;;;-3.97;84.88
73564;BME280;61834;50.196;6.454;2023-03-01T06:05:20;97150.47;;;-4.01;84.71
73564;BME280;61834;50.196;6.454;2023-03-01T06:07:47;97141.34;;;-3.95;84.23
73564;BME280;61834;50.196;6.454;2023-03-01T06:10:13;97154.44;;;-3.93;83.60
73564;BME280;61834;50.196;6.454;2023-03-01T06:12:41;97138.13;;;-3.87;83.07
73564;BME280;61834;50.196;6.454;2023-03-01T06:15:08;97151.25;;;-3.95;83.91
73564;BME280;61834;50.196;6.454;2023-03-01T06:17:38;97133.88;;;-3.93;83.80
73564;BME280;61834;50.196;6.454;2023-03-01T06:20:10;97133.03;;;-3.88;83.29
73564;BME280;61834;50.196;6.454;2023-03-01T06:22:36;97131.47;;;-3.94;84.08
73564;BME280;61834;50.196;6.454;2023-03-01T06:25:02;97141.06;;;-3.93;83.73
73564;BME280;61834;50.196;6.454;2023-03-01T06:27:27;97137.81;;;-3.80;83.21
73564;BME280;61834;50.196;6.454;2023-03-01T06:29:53;97136.53;;;-3.93;84.06
73564;BME280;61834;50.196;6.454;2023-03-01T06:32:18;97133.03;;;-3.83;84.01
73564;BME280;61834;50.196;6.454;2023-03-01T06:34:44;97131.91;;;-3.72;83.58
73564;BME280;61834;50.196;6.454;2023-03-01T06:37:09;97131.91;;;-3.77;83.67
73564;BME280;61834;50.196;6.454;2023-03-01T06:39:35;97129.78;;;-3.80;83.44
73564;BME280;61834;50.196;6.454;2023-03-01T06:42:00;97134.34;;;-3.80;84.10
73564;BME280;61834;50.196;6.454;2023-03-01T06:44:26;97132.22;;;-3.83;84.40
73564;BME280;61834;50.196;6.454;2023-03-01T06:46:52;97138.63;;;-3.79;84.27
73564;BME280;61834;50.196;6.454;2023-03-01T06:49:17;97136.22;;;-3.76;82.87
73564;BME280;61834;50.196;6.454;2023-03-01T06:51:43;97126.53;;;-3.72;84.11
73564;BME280;61834;50.196;6.454;2023-03-01T06:54:09;97128.16;;;-3.71;82.97
73564;BME280;61834;50.196;6.454;2023-03-01T06:56:35;97130.88;;;-3.81;83.83
73564;BME280;61834;50.196;6.454;2023-03-01T06:59:00;97121.19;;;-3.72;83.34
73564;BME280;61834;50.196;6.454;2023-03-01T07:01:26;97119.63;;;-3.78;83.46
73564;BME280;61834;50.196;6.454;2023-03-01T07:03:51;97135.13;;;-3.80;84.15
73564;BME280;61834;50.196;6.454;2023-03-01T07:06:17;97134.81;;;-3.68;83.22
73564;BME280;61834;50.196;6.454;2023-03-01T07:08:43;97133.25;;;-3.69;83.71
73564;BME280;61834;50.196;6.454;2023-03-01T07:11:08;97126.72;;;-3.53;82.08
73564;BME280;61834;50.196;6.454;2023-03-01T07:13:34;97126.78;;;-3.63;82.88
73564;BME280;61834;50.196;6.454;2023-03-01T07:15:59;97128.91;;;-3.65;82.99
73564;BME280;61834;50.196;6.454;2023-03-01T07:18:25;97128.41;;;-3.67;83.19
73564;BME280;61834;50.196;6.454;2023-03-01T07:20:50;97127.88;;;-3.64;82.71
73564;BME280;61834;50.196;6.454;2023-03-01T07:23:16;97119.78;;;-3.54;83.09
73564;BME280;61834;50.196;6.454;2023-03-01T07:25:41;97120.66;;;-3.64;82.84
73564;BME280;61834;50.196;6.454;2023-03-01T07:28:07;97117.66;;;-3.57;82.35
73564;BME280;61834;50.196;6.454;2023-03-01T07:30:32;97115.44;;;-3.45;82.72
73564;BME280;61834;50.196;6.454;2023-03-01T07:32:58;97113.03;;;-3.47;82.72
73564;BME280;61834;50.196;6.454;2023-03-01T07:35:25;97113.84;;;-3.46;83.26
73564;BME280;61834;50.196;6.454;2023-03-01T07:37:51;97112.25;;;-3.42;82.27
73564;BME280;61834;50.196;6.454;2023-03-01T07:40:17;97106.34;;;-3.44;82.72
73564;BME280;61834;50.196;6.454;2023-03-01T07:42:42;97099.91;;;-3.43;82.29
73564;BME280;61834;50.196;6.454;2023-03-01T07:45:08;97099.13;;;-3.44;82.96
73564;BME280;61834;50.196;6.454;2023-03-01T07:47:33;97101.47;;;-3.32;82.48
73564;BME280;61834;50.196;6.454;2023-03-01T07:49:59;97111.84;;;-3.21;81.46
73564;BME280;61834;50.196;6.454;2023-03-01T07:52:26;97112.13;;;-3.22;82.13
73564;BME280;61834;50.196;6.454;2023-03-01T07:54:52;97111.31;;;-3.23;82.40
73564;BME280;61834;50.196;6.454;2023-03-01T07:57:17;97123.47;;;-3.02;80.69
73564;BME280;61834;50.196;6.454;2023-03-01T07:59:43;97115.41;;;-2.97;81.00
73564;BME280;61834;50.196;6.454;2023-03-01T08:02:09;97105.78;;;-2.98;80.99
73564;BME280;61834;50.196;6.454;2023-03-01T08:04:35;97105.53;;;-3.01;81.68
73564;BME280;61834;50.196;6.454;2023-03-01T08:07:00;97107.78;;;-2.80;79.59
73564;BME280;61834;50.196;6.454;2023-03-01T08:09:26;97108.69;;;-2.61;79.26
73564;BME280;61834;50.196;6.454;2023-03-01T08:11:51;97125.06;;;-2.62;79.31
73564;BME280;61834;50.196;6.454;2023-03-01T08:14:17;97125.31;;;-2.64;79.29
73564;BME280;61834;50.196;6.454;2023-03-01T08:16:43;97123.06;;;-2.51;78.45
73564;BME280;61834;50.196;6.454;2023-03-01T08:19:10;97121.16;;;-2.46;78.65
73564;BME280;61834;50.196;6.454;2023-03-01T08:21:37;97113.06;;;-2.41;78.22
73564;BME280;61834;50.196;6.454;2023-03-01T08:24:05;97109.00;;;-2.38;78.22
73564;BME280;61834;50.196;6.454;2023-03-01T08:26:31;97121.91;;;-2.40;78.41
73564;BME280;61834;50.196;6.454;2023-03-01T08:28:57;97114.03;;;-2.32;76.81
73564;BME280;61834;50.196;6.454;2023-03-01T08:31:25;97107.59;;;-2.31;78.86
73564;BME280;61834;50.196;6.454;2023-03-01T08:33:53;97107.56;;;-2.26;78.86
73564;BME280;61834;50.196;6.454;2023-03-01T08:36:26;97103.63;;;-2.10;78.02
73564;BME280;61834;50.196;6.454;2023-03-01T08:38:52;97102.16;;;-2.21;77.85
73564;BME280;61834;50.196;6.454;2023-03-01T08:41:18;97098.09;;;-1.95;77.09
73564;BME280;61834;50.196;6.454;2023-03-01T08:43:44;97102.94;;;-1.97;77.64
73564;BME280;61834;50.196;6.454;2023-03-01T08:46:10;97096.84;;;-2.02;76.80
73564;BME280;61834;50.196;6.454;2023-03-01T08:48:36;97102.47;;;-1.80;75.99
73564;BME280;61834;50.196;6.454;2023-03-01T08:51:09;97100.31;;;-2.02;77.29
73564;BME280;61834;50.196;6.454;2023-03-01T08:53:35;97087.13;;;-1.98;76.71
73564;BME280;61834;50.196;6.454;2023-03-01T08:56:01;97091.06;;;-1.67;76.25
73564;BME280;61834;50.196;6.454;2023-03-01T08:58:29;97090.72;;;-1.61;76.42
73564;BME280;61834;50.196;6.454;2023-03-01T09:00:55;97086.50;;;-1.48;75.87
73564;BME280;61834;50.196;6.454;2023-03-01T09:03:22;97082.31;;;-1.36;75.67
73564;BME280;61834;50.196;6.454;2023-03-01T09:05:47;97085.22;;;-1.32;74.80
73564;BME280;61834;50.196;6.454;2023-03-01T09:08:16;97079.94;;;-1.37;75.58
73564;BME280;61834;50.196;6.454;2023-03-01T09:10:41;97072.22;;;-1.25;75.37
73564;BME280;61834;50.196;6.454;2023-03-01T09:13:06;97079.81;;;-1.13;74.59
73564;BME280;61834;50.196;6.454;2023-03-01T09:15:32;97080.94;;;-1.14;74.28
73564;BME280;61834;50.196;6.454;2023-03-01T09:17:59;97080.69;;;-0.99;73.92
73564;BME280;61834;50.196;6.454;2023-03-01T09:20:25;97085.13;;;-1.08;74.08
73564;BME280;61834;50.196;6.454;2023-03-01T09:22:50;97084.09;;;-0.75;72.80
73564;BME280;61834;50.196;6.454;2023-03-01T09:25:16;97085.91;;;-0.89;72.38
73564;BME280;61834;50.196;6.454;2023-03-01T09:27:41;97075.81;;;-0.79;73.04
73564;BME280;61834;50.196;6.454;2023-03-01T09:30:07;97068.75;;;-0.75;73.01
73564;BME280;61834;50.196;6.454;2023-03-01T09:32:33;97071.63;;;-0.71;73.01
73564;BME280;61834;50.196;6.454;2023-03-01T09:34:58;97063.31;;;-0.56;72.82
73564;BME280;61834;50.196;6.454;2023-03-01T09:37:33;97064.84;;;-0.37;72.79
73564;BME280;61834;50.196;6.454;2023-03-01T09:39:59;97062.25;;;-0.42;73.00
73564;BME280;61834;50.196;6.454;2023-03-01T09:42:27;97053.78;;;-0.49;71.28
73564;BME280;61834;50.196;6.454;2023-03-01T09:45:06;97047.84;;;-0.32;71.52
73564;BME280;61834;50.196;6.454;2023-03-01T09:47:35;97059.69;;;-0.20;72.45
73564;BME280;61834;50.196;6.454;2023-03-01T09:50:06;97063.31;;;-0.11;71.03
73564;BME280;61834;50.196;6.454;2023-03-01T09:52:42;97060.22;;;-0.04;70.55
73564;BME280;61834;50.196;6.454;2023-03-01T09:55:14;97055.03;;;-0.01;69.30
73564;BME280;61834;50.196;6.454;2023-03-01T09:57:53;97056.09;;;0.39;69.87
73564;BME280;61834;50.196;6.454;2023-03-01T10:00:37;97051.72;;;0.43;67.87
73564;BME280;61834;50.196;6.454;2023-03-01T10:03:16;97044.91;;;0.46;68.82
73564;BME280;61834;50.196;6.454;2023-03-01T10:06:23;97043.63;;;0.43;67.63
73564;BME280;61834;50.196;6.454;2023-03-01T10:08:58;97047.16;;;0.66;67.74
73564;BME280;61834;50.196;6.454;2023-03-01T10:11:28;97043.84;;;0.69;66.43
73564;BME280;61834;50.196;6.454;2023-03-01T10:14:03;97042.34;;;0.76;67.76
73564;BME280;61834;50.196;6.454;2023-03-01T10:19:13;97022.03;;;0.92;66.23
73564;BME280;61834;50.196;6.454;2023-03-01T10:21:44;97032.88;;;1.01;65.65
73564;BME280;61834;50.196;6.454;2023-03-01T10:24:15;97037.91;;;1.16;66.36
73564;BME280;61834;50.196;6.454;2023-03-01T10:29:12;97033.06;;;1.26;65.81
73564;BME280;61834;50.196;6.454;2023-03-01T10:31:44;97037.19;;;1.55;64.10
73564;BME280;61834;50.196;6.454;2023-03-01T10:36:40;97023.41;;;1.56;62.69
73564;BME280;61834;50.196;6.454;2023-03-01T10:39:18;97026.22;;;1.82;60.90
73564;BME280;61834;50.196;6.454;2023-03-01T10:42:00;97022.47;;;2.00;61.65
73564;BME280;61834;50.196;6.454;2023-03-01T10:44:42;97023.25;;;1.92;61.41
73564;BME280;61834;50.196;6.454;2023-03-01T10:47:19;97024.38;;;1.99;61.80
73564;BME280;61834;50.196;6.454;2023-03-01T10:50:03;97029.31;;;2.06;59.61
73564;BME280;61834;50.196;6.454;2023-03-01T10:52:37;97030.53;;;2.47;59.02
73564;BME280;61834;50.196;6.454;2023-03-01T10:55:23;97029.47;;;2.57;59.57
73564;BME280;61834;50.196;6.454;2023-03-01T10:57:50;97023.72;;;2.50;59.96
73564;BME280;61834;50.196;6.454;2023-03-01T11:00:25;97026.44;;;2.84;57.72
73564;BME280;61834;50.196;6.454;2023-03-01T11:03:11;97028.50;;;2.87;57.06
73564;BME280;61834;50.196;6.454;2023-03-01T11:05:50;97035.69;;;3.00;59.01
73564;BME280;61834;50.196;6.454;2023-03-01T11:08:29;97024.50;;;3.36;56.74
73564;BME280;61834;50.196;6.454;2023-03-01T11:11:22;97017.41;;;3.69;56.05
73564;BME280;61834;50.196;6.454;2023-03-01T11:14:15;97014.03;;;3.26;56.25
73564;BME280;61834;50.196;6.454;2023-03-01T11:16:46;97007.25;;;3.66;56.91
73564;BME280;61834;50.196;6.454;2023-03-01T11:21:54;96994.53;;;4.33;53.11
73564;BME280;61834;50.196;6.454;2023-03-01T11:24:26;96988.13;;;5.97;49.87
73564;BME280;61834;50.196;6.454;2023-03-01T11:26:54;96980.50;;;6.63;50.17
73564;BME280;61834;50.196;6.454;2023-03-01T11:29:35;96980.25;;;7.08;48.34
73564;BME280;61834;50.196;6.454;2023-03-01T11:32:07;96976.66;;;6.64;50.58
73564;BME280;61834;50.196;6.454;2023-03-01T11:34:44;96962.72;;;7.48;45.35
73564;BME280;61834;50.196;6.454;2023-03-01T11:37:35;96963.53;;;7.64;43.30
73564;BME280;61834;50.196;6.454;2023-03-01T11:40:23;96953.53;;;7.68;44.05
73564;BME280;61834;50.196;6.454;2023-03-01T11:43:23;96954.22;;;8.78;43.32
73564;BME280;61834;50.196;6.454;2023-03-01T11:48:44;96931.22;;;7.94;42.66
73564;BME280;61834;50.196;6.454;2023-03-01T11:51:40;96919.25;;;7.99;42.78
73564;BME280;61834;50.196;6.454;2023-03-01T11:56:45;96908.00;;;8.50;42.61
73564;BME280;61834;50.196;6.454;2023-03-01T12:00:36;96912.56;;;7.81;45.83
73564;BME280;61834;50.196;6.454;2023-03-01T12:05:32;96909.66;;;7.89;43.89
73564;BME280;61834;50.196;6.454;2023-03-01T12:13:40;96873.44;;;9.79;39.02
73564;BME280;61834;50.196;6.454;2023-03-01T12:19:16;96866.81;;;9.35;41.77
73564;BME280;61834;50.196;6.454;2023-03-01T12:32:55;96864.13;;;9.84;40.62
73564;BME280;61834;50.196;6.454;2023-03-01T12:35:38;96853.97;;;12.13;37.61
73564;BME280;61834;50.196;6.454;2023-03-01T12:49:39;96848.63;;;11.80;36.86
73564;BME280;61834;50.196;6.454;2023-03-01T12:52:17;96865.44;;;10.16;39.45
73564;BME280;61834;50.196;6.454;2023-03-01T12:54:46;96855.00;;;11.94;36.87
73564;BME280;61834;50.196;6.454;2023-03-01T12:57:17;96864.94;;;9.62;41.03
73564;BME280;61834;50.196;6.454;2023-03-01T13:00:18;96856.69;;;10.07;40.77
73564;BME280;61834;50.196;6.454;2023-03-01T13:02:59;96848.78;;;9.76;42.15
73564;BME280;61834;50.196;6.454;2023-03-01T13:11:03;96851.84;;;8.68;43.36
73564;BME280;61834;50.196;6.454;2023-03-01T13:13:30;96864.72;;;7.83;45.36
73564;BME280;61834;50.196;6.454;2023-03-01T13:15:56;96858.69;;;7.74;47.60
73564;BME280;61834;50.196;6.454;2023-03-01T13:18:26;96856.47;;;7.80;44.25
73564;BME280;61834;50.196;6.454;2023-03-01T13:20:57;96860.88;;;8.19;45.04
73564;BME280;61834;50.196;6.454;2023-03-01T13:23:34;96858.78;;;7.78;45.26
73564;BME280;61834;50.196;6.454;2023-03-01T13:26:12;96852.63;;;8.88;43.24
73564;BME280;61834;50.196;6.454;2023-03-01T13:28:50;96850.94;;;8.61;43.56
73564;BME280;61834;50.196;6.454;2023-03-01T13:33:42;96850.81;;;8.38;43.33
73564;BME280;61834;50.196;6.454;2023-03-01T13:36:09;96837.78;;;8.66;44.38
73564;BME280;61834;50.196;6.454;2023-03-01T13:38:48;96845.09;;;8.24;43.11
73564;BME280;61834;50.196;6.454;2023-03-01T13:44:29;96846.97;;;7.89;45.74
73564;BME280;61834;50.196;6.454;2023-03-01T13:47:14;96824.03;;;9.01;43.35
73564;BME280;61834;50.196;6.454;2023-03-01T13:49:47;96824.19;;;8.16;43.54
73564;BME280;61834;50.196;6.454;2023-03-01T13:52:40;96816.81;;;8.89;42.68
73564;BME280;61834;50.196;6.454;2023-03-01T13:57:39;96807.47;;;7.99;42.79
73564;BME280;61834;50.196;6.454;2023-03-01T14:00:05;96800.94;;;8.57;42.03
73564;BME280;61834;50.196;6.454;2023-03-01T14:02:31;96804.19;;;8.09;44.82
73564;BME280;61834;50.196;6.454;2023-03-01T14:05:00;96808.47;;;8.82;42.46
73564;BME280;61834;50.196;6.454;2023-03-01T14:07:27;96814.16;;;8.55;42.18
73564;BME280;61834;50.196;6.454;2023-03-01T14:10:02;96806.63;;;8.14;43.07
73564;BME280;61834;50.196;6.454;2023-03-01T14:12:40;96806.41;;;7.22;46.73
73564;BME280;61834;50.196;6.454;2023-03-01T14:18:22;96803.72;;;7.88;46.05
73564;BME280;61834;50.196;6.454;2023-03-01T14:20:50;96803.38;;;8.08;45.07
73564;BME280;61834;50.196;6.454;2023-03-01T14:23:21;96794.72;;;8.03;44.70
73564;BME280;61834;50.196;6.454;2023-03-01T14:28:18;96797.22;;;8.46;44.04
73564;BME280;61834;50.196;6.454;2023-03-01T14:30:46;96776.53;;;8.64;44.02